首页
METAR-TAF:

METAR-TAF

机场 :

Rochester International Airport

羅徹斯特, 明尼蘇達州, 美国

纬度: 43-54-15N, 经度: 092-29-30W, 海拔: 401米

当前天气观测

该预报发布于1小时和9分钟前的16:54 UTC
风速7节,风向西南
温度 28°C
湿度 35%
气压 1009 hPa
能見度: 16.1公里
天空无云

METAR: KRST 041654Z 23007KT 10SM CLR 28/11 A2981 RMK AO2 SLP085 T02830106

时间: 13:03 (18:03 UTC)

预报

该预报发布于43分钟前的17:20 UTC
预报有效从04日的 18点(UTC)到 05日的 18点(UTC)
风速8节,风向西转西南
能見度: 10公里
少量云层高于7000英尺
从 04日的 2100点(UTC)
风速5节,风向西
能見度: 10公里
散云层高于6000英尺
附近有阵雨
从 05日的 0600点(UTC)
风速5节,风向
能見度: 10公里
多云层高于5000英尺, 积雨云.
附近有雷暴
从 05日的 1000点(UTC)
风速7节,风向西北
能見度: 10公里
散云层高于5000英尺
多云层高于9000英尺

TAF: KRST 041720Z 0418/0518 24008KT P6SM FEW070 FM042100 28005KT P6SM VCSH SCT060 FM050600 17005KT P6SM VCTS BKN050CB FM051000 32007KT P6SM SCT050 BKN090

超过4000个机场的气象观测和天气预报(METAR&TAF报告)。

可查询的气象台以黄色和红色小点在地图上表示。

将鼠标移到小点上方,可查看气象台名称。

然后点击查看天气观测和预报。

如需切换地图:点击带黑十字的绿色按钮放大地图;点击带横线的绿色按钮缩小地图;或者点击绿色箭头查看邻近地区的地图。


METAR-TAF: